In Rescue
 
Open Full Screen Window  High Contrast Mode
Wind Gusting 00 knots
08
March 19, 2019 6:50 PM EDT
Weather Information
Wind Direction
  220 °
Wind Speed
  08 kt (9 mph)
Wind Gust
  00 kt (0 mph)
Altimeter
30.24 in
Visibility
10 SM
Temperature
05° C
41° F
Dewpoint
-05° C
23° F
Humidity
49%
Sky Condition
Clear
VFR

METAR KCVX 192250Z AUTO 22008KT 10SM CLR 05/M05 A3024 RMK AO2 T00471048

FAA Disclaimer: The data displayed is for advisory purposes only and is not to be used for flight planning or operations.